sensor_id;sensor_type;location;lat;lon;timestamp;P1;durP1;ratioP1;P2;durP2;ratioP2
10890;SDS011;5498;50.928;11.598;2022-11-11T00:01:33;9.97;;;4.97;;
10890;SDS011;5498;50.928;11.598;2022-11-11T00:04:35;8.37;;;4.20;;
10890;SDS011;5498;50.928;11.598;2022-11-11T00:07:36;9.03;;;3.60;;
10890;SDS011;5498;50.928;11.598;2022-11-11T00:10:38;9.23;;;3.90;;
10890;SDS011;5498;50.928;11.598;2022-11-11T00:13:41;8.07;;;4.10;;
10890;SDS011;5498;50.928;11.598;2022-11-11T00:16:45;11.90;;;4.77;;
10890;SDS011;5498;50.928;11.598;2022-11-11T00:20:06;11.00;;;4.23;;
10890;SDS011;5498;50.928;11.598;2022-11-11T00:23:27;9.33;;;4.30;;
10890;SDS011;5498;50.928;11.598;2022-11-11T00:26:47;8.27;;;4.83;;
10890;SDS011;5498;50.928;11.598;2022-11-11T00:29:49;7.80;;;4.30;;
10890;SDS011;5498;50.928;11.598;2022-11-11T00:32:53;9.60;;;4.63;;
10890;SDS011;5498;50.928;11.598;2022-11-11T00:35:55;7.27;;;4.60;;
10890;SDS011;5498;50.928;11.598;2022-11-11T00:38:58;12.10;;;4.07;;
10890;SDS011;5498;50.928;11.598;2022-11-11T00:42:00;11.20;;;3.97;;
10890;SDS011;5498;50.928;11.598;2022-11-11T00:45:02;8.47;;;3.97;;
10890;SDS011;5498;50.928;11.598;2022-11-11T00:48:08;12.40;;;4.03;;
10890;SDS011;5498;50.928;11.598;2022-11-11T00:51:30;11.77;;;4.37;;
10890;SDS011;5498;50.928;11.598;2022-11-11T00:54:32;12.17;;;4.57;;
10890;SDS011;5498;50.928;11.598;2022-11-11T00:57:34;9.50;;;4.17;;
10890;SDS011;5498;50.928;11.598;2022-11-11T01:00:36;5.77;;;3.87;;
10890;SDS011;5498;50.928;11.598;2022-11-11T01:03:39;8.77;;;3.97;;
10890;SDS011;5498;50.928;11.598;2022-11-11T01:06:41;7.37;;;4.17;;
10890;SDS011;5498;50.928;11.598;2022-11-11T01:09:43;5.53;;;3.70;;
10890;SDS011;5498;50.928;11.598;2022-11-11T01:12:46;9.60;;;4.10;;
10890;SDS011;5498;50.928;11.598;2022-11-11T01:15:49;7.70;;;3.27;;
10890;SDS011;5498;50.928;11.598;2022-11-11T01:18:55;7.53;;;3.47;;
10890;SDS011;5498;50.928;11.598;2022-11-11T01:21:57;5.93;;;3.77;;
10890;SDS011;5498;50.928;11.598;2022-11-11T01:24:59;10.33;;;4.73;;
10890;SDS011;5498;50.928;11.598;2022-11-11T01:28:01;9.33;;;4.30;;
10890;SDS011;5498;50.928;11.598;2022-11-11T01:31:04;7.67;;;3.57;;
10890;SDS011;5498;50.928;11.598;2022-11-11T01:34:11;9.77;;;4.00;;
10890;SDS011;5498;50.928;11.598;2022-11-11T01:37:13;5.93;;;3.60;;
10890;SDS011;5498;50.928;11.598;2022-11-11T01:40:15;6.30;;;3.73;;
10890;SDS011;5498;50.928;11.598;2022-11-11T01:43:19;9.30;;;4.83;;
10890;SDS011;5498;50.928;11.598;2022-11-11T01:46:25;13.60;;;4.13;;
10890;SDS011;5498;50.928;11.598;2022-11-11T01:49:33;11.23;;;4.00;;
10890;SDS011;5498;50.928;11.598;2022-11-11T01:52:41;6.50;;;4.03;;
10890;SDS011;5498;50.928;11.598;2022-11-11T01:55:45;9.23;;;4.40;;
10890;SDS011;5498;50.928;11.598;2022-11-11T01:58:47;6.20;;;3.97;;
10890;SDS011;5498;50.928;11.598;2022-11-11T02:01:50;8.23;;;3.97;;
10890;SDS011;5498;50.928;11.598;2022-11-11T02:04:54;6.33;;;3.43;;
10890;SDS011;5498;50.928;11.598;2022-11-11T02:08:23;10.53;;;4.00;;
10890;SDS011;5498;50.928;11.598;2022-11-11T02:11:35;6.70;;;4.63;;
10890;SDS011;5498;50.928;11.598;2022-11-11T02:14:58;8.83;;;4.00;;
10890;SDS011;5498;50.928;11.598;2022-11-11T02:18:02;8.23;;;3.93;;
10890;SDS011;5498;50.928;11.598;2022-11-11T02:21:06;7.33;;;3.70;;
10890;SDS011;5498;50.928;11.598;2022-11-11T02:24:12;5.80;;;3.83;;
10890;SDS011;5498;50.928;11.598;2022-11-11T02:27:17;5.73;;;3.80;;
10890;SDS011;5498;50.928;11.598;2022-11-11T02:30:20;9.07;;;4.37;;
10890;SDS011;5498;50.928;11.598;2022-11-11T02:33:22;7.40;;;3.70;;
10890;SDS011;5498;50.928;11.598;2022-11-11T02:36:24;5.30;;;3.63;;
10890;SDS011;5498;50.928;11.598;2022-11-11T02:39:28;8.47;;;3.70;;
10890;SDS011;5498;50.928;11.598;2022-11-11T02:42:32;6.83;;;3.50;;
10890;SDS011;5498;50.928;11.598;2022-11-11T02:45:35;7.17;;;3.00;;
10890;SDS011;5498;50.928;11.598;2022-11-11T02:48:37;6.47;;;3.30;;
10890;SDS011;5498;50.928;11.598;2022-11-11T02:51:39;7.00;;;3.10;;
10890;SDS011;5498;50.928;11.598;2022-11-11T02:54:43;6.80;;;2.83;;
10890;SDS011;5498;50.928;11.598;2022-11-11T02:57:45;8.97;;;3.23;;
10890;SDS011;5498;50.928;11.598;2022-11-11T03:00:47;5.53;;;3.73;;
10890;SDS011;5498;50.928;11.598;2022-11-11T03:03:49;6.17;;;3.07;;
10890;SDS011;5498;50.928;11.598;2022-11-11T03:06:51;6.93;;;2.87;;
10890;SDS011;5498;50.928;11.598;2022-11-11T03:09:55;4.20;;;3.20;;
10890;SDS011;5498;50.928;11.598;2022-11-11T03:12:57;8.10;;;3.57;;
10890;SDS011;5498;50.928;11.598;2022-11-11T03:15:59;10.37;;;3.37;;
10890;SDS011;5498;50.928;11.598;2022-11-11T03:19:01;5.20;;;2.77;;
10890;SDS011;5498;50.928;11.598;2022-11-11T03:22:02;3.57;;;3.13;;
10890;SDS011;5498;50.928;11.598;2022-11-11T03:25:06;6.57;;;2.93;;
10890;SDS011;5498;50.928;11.598;2022-11-11T03:28:26;7.30;;;3.47;;
10890;SDS011;5498;50.928;11.598;2022-11-11T03:31:28;5.40;;;3.73;;
10890;SDS011;5498;50.928;11.598;2022-11-11T03:34:30;5.97;;;2.87;;
10890;SDS011;5498;50.928;11.598;2022-11-11T03:37:32;9.57;;;3.10;;
10890;SDS011;5498;50.928;11.598;2022-11-11T03:40:54;6.50;;;3.27;;
10890;SDS011;5498;50.928;11.598;2022-11-11T03:43:58;8.90;;;2.87;;
10890;SDS011;5498;50.928;11.598;2022-11-11T03:47:00;10.60;;;3.17;;
10890;SDS011;5498;50.928;11.598;2022-11-11T03:50:02;3.67;;;3.27;;
10890;SDS011;5498;50.928;11.598;2022-11-11T03:53:04;7.60;;;3.53;;
10890;SDS011;5498;50.928;11.598;2022-11-11T03:56:08;6.07;;;3.00;;
10890;SDS011;5498;50.928;11.598;2022-11-11T03:59:10;9.33;;;3.60;;
10890;SDS011;5498;50.928;11.598;2022-11-11T04:02:12;11.70;;;3.40;;
10890;SDS011;5498;50.928;11.598;2022-11-11T04:05:47;5.93;;;3.30;;
10890;SDS011;5498;50.928;11.598;2022-11-11T04:09:06;5.43;;;3.20;;
10890;SDS011;5498;50.928;11.598;2022-11-11T04:12:27;9.47;;;4.17;;
10890;SDS011;5498;50.928;11.598;2022-11-11T04:15:51;7.43;;;3.10;;
10890;SDS011;5498;50.928;11.598;2022-11-11T04:19:08;6.60;;;2.90;;
10890;SDS011;5498;50.928;11.598;2022-11-11T04:22:27;6.13;;;3.40;;
10890;SDS011;5498;50.928;11.598;2022-11-11T04:25:30;7.37;;;3.63;;
10890;SDS011;5498;50.928;11.598;2022-11-11T04:28:53;5.23;;;3.17;;
10890;SDS011;5498;50.928;11.598;2022-11-11T04:32:28;5.53;;;3.33;;
10890;SDS011;5498;50.928;11.598;2022-11-11T04:35:37;6.30;;;3.20;;
10890;SDS011;5498;50.928;11.598;2022-11-11T04:38:39;7.07;;;3.00;;
10890;SDS011;5498;50.928;11.598;2022-11-11T04:41:58;9.70;;;3.17;;
10890;SDS011;5498;50.928;11.598;2022-11-11T04:45:02;6.53;;;3.97;;
10890;SDS011;5498;50.928;11.598;2022-11-11T04:48:23;6.43;;;3.70;;
10890;SDS011;5498;50.928;11.598;2022-11-11T04:51:25;11.97;;;3.87;;
10890;SDS011;5498;50.928;11.598;2022-11-11T04:54:47;5.53;;;3.53;;
10890;SDS011;5498;50.928;11.598;2022-11-11T04:58:03;5.37;;;3.00;;
10890;SDS011;5498;50.928;11.598;2022-11-11T05:01:06;8.03;;;3.43;;
10890;SDS011;5498;50.928;11.598;2022-11-11T05:04:08;5.93;;;3.60;;
10890;SDS011;5498;50.928;11.598;2022-11-11T05:07:09;7.53;;;3.47;;
10890;SDS011;5498;50.928;11.598;2022-11-11T05:10:30;9.53;;;3.50;;
10890;SDS011;5498;50.928;11.598;2022-11-11T05:13:32;12.20;;;5.10;;
10890;SDS011;5498;50.928;11.598;2022-11-11T05:16:54;4.97;;;3.30;;
10890;SDS011;5498;50.928;11.598;2022-11-11T05:20:15;6.10;;;3.87;;
10890;SDS011;5498;50.928;11.598;2022-11-11T05:23:34;7.07;;;3.93;;
10890;SDS011;5498;50.928;11.598;2022-11-11T05:26:51;7.60;;;3.40;;
10890;SDS011;5498;50.928;11.598;2022-11-11T05:29:54;7.60;;;3.23;;
10890;SDS011;5498;50.928;11.598;2022-11-11T05:32:57;7.83;;;3.57;;
10890;SDS011;5498;50.928;11.598;2022-11-11T05:35:59;9.70;;;3.97;;
10890;SDS011;5498;50.928;11.598;2022-11-11T05:39:01;8.77;;;3.40;;
10890;SDS011;5498;50.928;11.598;2022-11-11T05:42:04;5.47;;;3.10;;
10890;SDS011;5498;50.928;11.598;2022-11-11T05:45:06;7.67;;;3.53;;
10890;SDS011;5498;50.928;11.598;2022-11-11T05:48:11;7.27;;;3.47;;
10890;SDS011;5498;50.928;11.598;2022-11-11T05:51:13;7.17;;;3.53;;
10890;SDS011;5498;50.928;11.598;2022-11-11T05:54:27;6.40;;;4.03;;
10890;SDS011;5498;50.928;11.598;2022-11-11T05:57:29;8.50;;;3.77;;
10890;SDS011;5498;50.928;11.598;2022-11-11T06:00:31;7.37;;;3.17;;
10890;SDS011;5498;50.928;11.598;2022-11-11T06:03:35;6.43;;;3.33;;
10890;SDS011;5498;50.928;11.598;2022-11-11T06:06:37;7.13;;;3.70;;
10890;SDS011;5498;50.928;11.598;2022-11-11T06:09:39;10.13;;;3.50;;
10890;SDS011;5498;50.928;11.598;2022-11-11T06:12:41;16.57;;;3.73;;
10890;SDS011;5498;50.928;11.598;2022-11-11T06:15:57;8.07;;;3.60;;
10890;SDS011;5498;50.928;11.598;2022-11-11T06:19:02;7.03;;;4.30;;
10890;SDS011;5498;50.928;11.598;2022-11-11T06:22:04;4.67;;;3.33;;
10890;SDS011;5498;50.928;11.598;2022-11-11T06:25:06;7.60;;;4.00;;
10890;SDS011;5498;50.928;11.598;2022-11-11T06:28:26;8.33;;;3.33;;
10890;SDS011;5498;50.928;11.598;2022-11-11T06:31:28;8.27;;;3.67;;
10890;SDS011;5498;50.928;11.598;2022-11-11T06:34:31;6.47;;;4.00;;
10890;SDS011;5498;50.928;11.598;2022-11-11T06:37:33;12.43;;;5.10;;
10890;SDS011;5498;50.928;11.598;2022-11-11T06:40:36;6.67;;;3.70;;
10890;SDS011;5498;50.928;11.598;2022-11-11T06:43:39;11.67;;;4.40;;
10890;SDS011;5498;50.928;11.598;2022-11-11T06:46:41;8.00;;;4.37;;
10890;SDS011;5498;50.928;11.598;2022-11-11T06:49:44;6.97;;;3.50;;
10890;SDS011;5498;50.928;11.598;2022-11-11T06:52:46;8.67;;;4.00;;
10890;SDS011;5498;50.928;11.598;2022-11-11T06:55:50;7.97;;;4.03;;
10890;SDS011;5498;50.928;11.598;2022-11-11T06:58:53;8.73;;;4.00;;
10890;SDS011;5498;50.928;11.598;2022-11-11T07:01:55;7.83;;;3.70;;
10890;SDS011;5498;50.928;11.598;2022-11-11T07:04:58;6.53;;;4.30;;
10890;SDS011;5498;50.928;11.598;2022-11-11T07:08:01;6.50;;;3.40;;
10890;SDS011;5498;50.928;11.598;2022-11-11T07:11:04;9.90;;;3.63;;
10890;SDS011;5498;50.928;11.598;2022-11-11T07:14:06;4.17;;;3.27;;
10890;SDS011;5498;50.928;11.598;2022-11-11T07:17:08;9.13;;;3.50;;
10890;SDS011;5498;50.928;11.598;2022-11-11T07:20:11;5.67;;;3.13;;
10890;SDS011;5498;50.928;11.598;2022-11-11T07:23:14;5.43;;;3.03;;
10890;SDS011;5498;50.928;11.598;2022-11-11T07:26:17;10.37;;;3.90;;
10890;SDS011;5498;50.928;11.598;2022-11-11T07:29:19;7.27;;;3.20;;
10890;SDS011;5498;50.928;11.598;2022-11-11T07:32:21;8.27;;;3.70;;
10890;SDS011;5498;50.928;11.598;2022-11-11T07:35:24;9.17;;;3.53;;
10890;SDS011;5498;50.928;11.598;2022-11-11T07:38:26;9.83;;;3.57;;
10890;SDS011;5498;50.928;11.598;2022-11-11T07:41:28;8.40;;;4.30;;
10890;SDS011;5498;50.928;11.598;2022-11-11T07:44:31;9.87;;;3.90;;
10890;SDS011;5498;50.928;11.598;2022-11-11T07:47:34;6.97;;;3.67;;
10890;SDS011;5498;50.928;11.598;2022-11-11T07:50:38;7.80;;;4.07;;
10890;SDS011;5498;50.928;11.598;2022-11-11T07:53:40;11.27;;;4.30;;
10890;SDS011;5498;50.928;11.598;2022-11-11T07:56:41;11.33;;;3.93;;
10890;SDS011;5498;50.928;11.598;2022-11-11T07:59:43;4.70;;;3.50;;
10890;SDS011;5498;50.928;11.598;2022-11-11T08:02:46;9.53;;;4.23;;
10890;SDS011;5498;50.928;11.598;2022-11-11T08:05:50;7.03;;;3.20;;
10890;SDS011;5498;50.928;11.598;2022-11-11T08:08:52;5.00;;;3.63;;
10890;SDS011;5498;50.928;11.598;2022-11-11T08:11:54;7.93;;;4.23;;
10890;SDS011;5498;50.928;11.598;2022-11-11T08:15:14;7.47;;;4.13;;
10890;SDS011;5498;50.928;11.598;2022-11-11T08:18:16;11.70;;;3.67;;
10890;SDS011;5498;50.928;11.598;2022-11-11T08:21:19;9.30;;;3.70;;
10890;SDS011;5498;50.928;11.598;2022-11-11T08:24:21;7.20;;;3.40;;
10890;SDS011;5498;50.928;11.598;2022-11-11T08:27:23;7.23;;;3.70;;
10890;SDS011;5498;50.928;11.598;2022-11-11T08:30:25;8.30;;;3.90;;
10890;SDS011;5498;50.928;11.598;2022-11-11T08:33:27;15.13;;;4.33;;
10890;SDS011;5498;50.928;11.598;2022-11-11T08:36:31;10.70;;;3.97;;
10890;SDS011;5498;50.928;11.598;2022-11-11T08:39:33;8.67;;;4.20;;
10890;SDS011;5498;50.928;11.598;2022-11-11T08:42:35;7.67;;;3.73;;
10890;SDS011;5498;50.928;11.598;2022-11-11T08:45:37;15.30;;;4.10;;
10890;SDS011;5498;50.928;11.598;2022-11-11T08:48:39;9.97;;;4.40;;
10890;SDS011;5498;50.928;11.598;2022-11-11T08:51:42;9.90;;;5.07;;
10890;SDS011;5498;50.928;11.598;2022-11-11T08:54:44;17.97;;;5.77;;
10890;SDS011;5498;50.928;11.598;2022-11-11T08:57:46;10.40;;;6.20;;
10890;SDS011;5498;50.928;11.598;2022-11-11T09:00:48;12.50;;;5.20;;
10890;SDS011;5498;50.928;11.598;2022-11-11T09:03:50;11.17;;;4.77;;
10890;SDS011;5498;50.928;11.598;2022-11-11T09:06:54;9.40;;;4.30;;
10890;SDS011;5498;50.928;11.598;2022-11-11T09:09:56;7.00;;;3.90;;
10890;SDS011;5498;50.928;11.598;2022-11-11T09:12:59;14.67;;;4.30;;
10890;SDS011;5498;50.928;11.598;2022-11-11T09:16:03;9.83;;;4.37;;
10890;SDS011;5498;50.928;11.598;2022-11-11T09:19:07;9.30;;;4.37;;
10890;SDS011;5498;50.928;11.598;2022-11-11T09:22:11;14.87;;;4.83;;
10890;SDS011;5498;50.928;11.598;2022-11-11T09:25:13;8.57;;;4.97;;
10890;SDS011;5498;50.928;11.598;2022-11-11T09:28:16;8.53;;;5.47;;
10890;SDS011;5498;50.928;11.598;2022-11-11T09:31:18;12.77;;;5.43;;
10890;SDS011;5498;50.928;11.598;2022-11-11T09:34:22;14.10;;;6.23;;
10890;SDS011;5498;50.928;11.598;2022-11-11T09:37:25;8.97;;;6.43;;
10890;SDS011;5498;50.928;11.598;2022-11-11T09:40:32;9.87;;;6.20;;
10890;SDS011;5498;50.928;11.598;2022-11-11T09:43:51;12.67;;;6.17;;
10890;SDS011;5498;50.928;11.598;2022-11-11T09:46:57;13.10;;;6.60;;
10890;SDS011;5498;50.928;11.598;2022-11-11T09:50:05;10.70;;;4.97;;
10890;SDS011;5498;50.928;11.598;2022-11-11T09:53:16;13.47;;;4.70;;
10890;SDS011;5498;50.928;11.598;2022-11-11T09:56:25;13.77;;;4.97;;
10890;SDS011;5498;50.928;11.598;2022-11-11T09:59:29;9.50;;;4.30;;
10890;SDS011;5498;50.928;11.598;2022-11-11T10:02:42;11.87;;;4.33;;
10890;SDS011;5498;50.928;11.598;2022-11-11T10:05:50;7.00;;;3.70;;
10890;SDS011;5498;50.928;11.598;2022-11-11T10:09:02;6.33;;;3.60;;
10890;SDS011;5498;50.928;11.598;2022-11-11T10:12:14;8.47;;;3.67;;
10890;SDS011;5498;50.928;11.598;2022-11-11T10:15:17;5.23;;;2.77;;
10890;SDS011;5498;50.928;11.598;2022-11-11T10:18:23;4.80;;;2.60;;
10890;SDS011;5498;50.928;11.598;2022-11-11T10:21:42;8.73;;;2.73;;
10890;SDS011;5498;50.928;11.598;2022-11-11T10:24:52;7.63;;;2.37;;
10890;SDS011;5498;50.928;11.598;2022-11-11T10:28:08;7.73;;;2.53;;
10890;SDS011;5498;50.928;11.598;2022-11-11T10:31:17;6.77;;;2.73;;
10890;SDS011;5498;50.928;11.598;2022-11-11T10:34:22;11.87;;;2.40;;
10890;SDS011;5498;50.928;11.598;2022-11-11T10:37:35;4.83;;;2.40;;
10890;SDS011;5498;50.928;11.598;2022-11-11T10:40:45;10.30;;;1.90;;
10890;SDS011;5498;50.928;11.598;2022-11-11T10:43:52;4.17;;;1.73;;
10890;SDS011;5498;50.928;11.598;2022-11-11T10:46:58;4.07;;;1.87;;
10890;SDS011;5498;50.928;11.598;2022-11-11T10:50:09;3.33;;;1.60;;
10890;SDS011;5498;50.928;11.598;2022-11-11T10:53:19;5.10;;;1.70;;
10890;SDS011;5498;50.928;11.598;2022-11-11T10:56:34;2.60;;;1.47;;
10890;SDS011;5498;50.928;11.598;2022-11-11T10:59:43;4.97;;;1.77;;
10890;SDS011;5498;50.928;11.598;2022-11-11T11:02:51;4.73;;;1.73;;
10890;SDS011;5498;50.928;11.598;2022-11-11T11:06:02;4.70;;;1.80;;
10890;SDS011;5498;50.928;11.598;2022-11-11T11:09:12;2.33;;;1.30;;
10890;SDS011;5498;50.928;11.598;2022-11-11T11:12:24;3.87;;;1.70;;
10890;SDS011;5498;50.928;11.598;2022-11-11T11:15:32;7.50;;;1.83;;
10890;SDS011;5498;50.928;11.598;2022-11-11T11:18:40;2.10;;;1.60;;
10890;SDS011;5498;50.928;11.598;2022-11-11T11:21:50;6.50;;;1.27;;
10890;SDS011;5498;50.928;11.598;2022-11-11T11:24:58;4.73;;;1.63;;
10890;SDS011;5498;50.928;11.598;2022-11-11T11:28:12;8.53;;;1.83;;
10890;SDS011;5498;50.928;11.598;2022-11-11T11:31:14;5.65;;;1.80;;
10890;SDS011;5498;50.928;11.598;2022-11-11T11:34:16;3.63;;;1.27;;
10890;SDS011;5498;50.928;11.598;2022-11-11T11:37:20;4.30;;;2.10;;
10890;SDS011;5498;50.928;11.598;2022-11-11T11:40:23;1.83;;;1.10;;
10890;SDS011;5498;50.928;11.598;2022-11-11T11:43:30;1.73;;;1.33;;
10890;SDS011;5498;50.928;11.598;2022-11-11T11:46:36;7.33;;;1.77;;
10890;SDS011;5498;50.928;11.598;2022-11-11T11:49:45;3.17;;;1.10;;
10890;SDS011;5498;50.928;11.598;2022-11-11T11:53:19;7.80;;;1.73;;
10890;SDS011;5498;50.928;11.598;2022-11-11T11:56:35;3.97;;;1.73;;
10890;SDS011;5498;50.928;11.598;2022-11-11T11:59:42;3.37;;;1.13;;
10890;SDS011;5498;50.928;11.598;2022-11-11T12:06:33;1.53;;;1.20;;
10890;SDS011;5498;50.928;11.598;2022-11-11T12:09:52;1.67;;;1.00;;
10890;SDS011;5498;50.928;11.598;2022-11-11T12:13:04;3.10;;;1.30;;
10890;SDS011;5498;50.928;11.598;2022-11-11T12:16:22;1.63;;;0.88;;
10890;SDS011;5498;50.928;11.598;2022-11-11T12:19:30;7.73;;;1.50;;
10890;SDS011;5498;50.928;11.598;2022-11-11T12:22:50;1.47;;;1.00;;
10890;SDS011;5498;50.928;11.598;2022-11-11T12:26:04;3.13;;;1.43;;
10890;SDS011;5498;50.928;11.598;2022-11-11T12:29:17;1.67;;;0.98;;
10890;SDS011;5498;50.928;11.598;2022-11-11T12:36:39;1.93;;;1.10;;
10890;SDS011;5498;50.928;11.598;2022-11-11T12:39:58;3.97;;;1.27;;
10890;SDS011;5498;50.928;11.598;2022-11-11T12:43:19;2.13;;;1.37;;
10890;SDS011;5498;50.928;11.598;2022-11-11T12:46:28;5.63;;;1.53;;
10890;SDS011;5498;50.928;11.598;2022-11-11T12:49:48;3.10;;;1.23;;
10890;SDS011;5498;50.928;11.598;2022-11-11T12:53:03;4.10;;;1.13;;
10890;SDS011;5498;50.928;11.598;2022-11-11T12:56:21;18.20;;;2.07;;
10890;SDS011;5498;50.928;11.598;2022-11-11T12:59:35;1.97;;;1.27;;
10890;SDS011;5498;50.928;11.598;2022-11-11T13:03:02;3.27;;;1.37;;
10890;SDS011;5498;50.928;11.598;2022-11-11T13:06:23;1.33;;;0.70;;
10890;SDS011;5498;50.928;11.598;2022-11-11T13:09:51;2.90;;;1.30;;
10890;SDS011;5498;50.928;11.598;2022-11-11T13:13:27;2.70;;;1.10;;
10890;SDS011;5498;50.928;11.598;2022-11-11T13:16:43;2.33;;;1.00;;
10890;SDS011;5498;50.928;11.598;2022-11-11T13:19:47;1.93;;;1.03;;
10890;SDS011;5498;50.928;11.598;2022-11-11T13:22:55;8.57;;;1.10;;
10890;SDS011;5498;50.928;11.598;2022-11-11T13:25:57;3.47;;;1.03;;
10890;SDS011;5498;50.928;11.598;2022-11-11T13:29:09;3.37;;;1.07;;
10890;SDS011;5498;50.928;11.598;2022-11-11T13:32:36;2.43;;;0.90;;
10890;SDS011;5498;50.928;11.598;2022-11-11T13:35:43;2.67;;;0.77;;
10890;SDS011;5498;50.928;11.598;2022-11-11T13:38:50;1.80;;;1.00;;
10890;SDS011;5498;50.928;11.598;2022-11-11T13:41:55;1.57;;;1.10;;
10890;SDS011;5498;50.928;11.598;2022-11-11T13:44:58;1.13;;;0.90;;
10890;SDS011;5498;50.928;11.598;2022-11-11T13:48:04;2.03;;;0.90;;
10890;SDS011;5498;50.928;11.598;2022-11-11T13:51:11;1.43;;;1.00;;
10890;SDS011;5498;50.928;11.598;2022-11-11T13:54:25;2.47;;;0.80;;
10890;SDS011;5498;50.928;11.598;2022-11-11T13:57:30;2.30;;;1.00;;
10890;SDS011;5498;50.928;11.598;2022-11-11T14:00:35;1.63;;;0.83;;
10890;SDS011;5498;50.928;11.598;2022-11-11T14:03:58;9.73;;;1.00;;
10890;SDS011;5498;50.928;11.598;2022-11-11T14:07:06;1.70;;;1.03;;
10890;SDS011;5498;50.928;11.598;2022-11-11T14:10:09;1.60;;;1.00;;
10890;SDS011;5498;50.928;11.598;2022-11-11T14:13:51;1.27;;;0.90;;
10890;SDS011;5498;50.928;11.598;2022-11-11T14:17:00;4.27;;;0.87;;
10890;SDS011;5498;50.928;11.598;2022-11-11T14:23:40;1.50;;;1.33;;
10890;SDS011;5498;50.928;11.598;2022-11-11T14:26:44;2.20;;;1.30;;
10890;SDS011;5498;50.928;11.598;2022-11-11T14:30:01;13.30;;;8.20;;
10890;SDS011;5498;50.928;11.598;2022-11-11T14:33:05;2.33;;;1.90;;
10890;SDS011;5498;50.928;11.598;2022-11-11T14:36:18;7.03;;;1.43;;
10890;SDS011;5498;50.928;11.598;2022-11-11T14:39:29;6.53;;;1.57;;
10890;SDS011;5498;50.928;11.598;2022-11-11T14:42:44;2.47;;;1.17;;
10890;SDS011;5498;50.928;11.598;2022-11-11T14:45:51;3.67;;;1.40;;
10890;SDS011;5498;50.928;11.598;2022-11-11T14:48:57;2.47;;;1.50;;
10890;SDS011;5498;50.928;11.598;2022-11-11T14:52:02;2.40;;;1.50;;
10890;SDS011;5498;50.928;11.598;2022-11-11T14:55:20;6.83;;;2.03;;
10890;SDS011;5498;50.928;11.598;2022-11-11T14:58:32;6.17;;;2.07;;
10890;SDS011;5498;50.928;11.598;2022-11-11T15:01:35;4.93;;;1.80;;
10890;SDS011;5498;50.928;11.598;2022-11-11T15:04:37;4.50;;;2.03;;
10890;SDS011;5498;50.928;11.598;2022-11-11T15:07:51;3.27;;;1.83;;
10890;SDS011;5498;50.928;11.598;2022-11-11T15:11:14;5.90;;;2.70;;
10890;SDS011;5498;50.928;11.598;2022-11-11T15:14:28;9.87;;;2.80;;
10890;SDS011;5498;50.928;11.598;2022-11-11T15:17:51;4.43;;;2.47;;
10890;SDS011;5498;50.928;11.598;2022-11-11T15:21:06;13.43;;;2.50;;
10890;SDS011;5498;50.928;11.598;2022-11-11T15:24:16;7.73;;;3.33;;
10890;SDS011;5498;50.928;11.598;2022-11-11T15:27:32;10.13;;;3.00;;
10890;SDS011;5498;50.928;11.598;2022-11-11T15:30:48;6.37;;;2.87;;
10890;SDS011;5498;50.928;11.598;2022-11-11T15:34:06;8.47;;;2.70;;
10890;SDS011;5498;50.928;11.598;2022-11-11T15:37:25;4.83;;;2.13;;
10890;SDS011;5498;50.928;11.598;2022-11-11T15:40:29;9.63;;;3.53;;
10890;SDS011;5498;50.928;11.598;2022-11-11T15:43:43;9.63;;;2.87;;
10890;SDS011;5498;50.928;11.598;2022-11-11T15:46:46;3.70;;;2.57;;
10890;SDS011;5498;50.928;11.598;2022-11-11T15:49:50;9.57;;;3.33;;
10890;SDS011;5498;50.928;11.598;2022-11-11T15:52:52;9.77;;;4.57;;
10890;SDS011;5498;50.928;11.598;2022-11-11T15:55:56;9.63;;;4.03;;
10890;SDS011;5498;50.928;11.598;2022-11-11T15:59:13;10.03;;;2.50;;
10890;SDS011;5498;50.928;11.598;2022-11-11T16:02:17;6.53;;;3.50;;
10890;SDS011;5498;50.928;11.598;2022-11-11T16:05:24;10.73;;;2.63;;
10890;SDS011;5498;50.928;11.598;2022-11-11T16:08:27;6.37;;;2.70;;
10890;SDS011;5498;50.928;11.598;2022-11-11T16:11:29;9.07;;;3.40;;
10890;SDS011;5498;50.928;11.598;2022-11-11T16:14:32;6.77;;;3.17;;
10890;SDS011;5498;50.928;11.598;2022-11-11T16:17:40;7.47;;;3.20;;
10890;SDS011;5498;50.928;11.598;2022-11-11T16:20:47;6.83;;;3.50;;
10890;SDS011;5498;50.928;11.598;2022-11-11T16:23:54;4.80;;;3.27;;
10890;SDS011;5498;50.928;11.598;2022-11-11T16:27:00;8.03;;;3.10;;
10890;SDS011;5498;50.928;11.598;2022-11-11T16:30:14;7.27;;;3.27;;
10890;SDS011;5498;50.928;11.598;2022-11-11T16:33:19;7.13;;;3.20;;
10890;SDS011;5498;50.928;11.598;2022-11-11T16:36:35;6.67;;;3.63;;
10890;SDS011;5498;50.928;11.598;2022-11-11T16:39:37;6.27;;;4.10;;
10890;SDS011;5498;50.928;11.598;2022-11-11T16:42:39;5.33;;;3.97;;
10890;SDS011;5498;50.928;11.598;2022-11-11T16:45:45;12.87;;;4.40;;
10890;SDS011;5498;50.928;11.598;2022-11-11T16:48:50;10.53;;;4.83;;
10890;SDS011;5498;50.928;11.598;2022-11-11T16:51:54;7.80;;;4.47;;
10890;SDS011;5498;50.928;11.598;2022-11-11T16:55:16;9.67;;;4.73;;
10890;SDS011;5498;50.928;11.598;2022-11-11T16:58:24;7.30;;;4.47;;
10890;SDS011;5498;50.928;11.598;2022-11-11T17:01:27;11.03;;;5.43;;
10890;SDS011;5498;50.928;11.598;2022-11-11T17:04:44;9.47;;;4.83;;
10890;SDS011;5498;50.928;11.598;2022-11-11T17:07:48;7.67;;;5.37;;
10890;SDS011;5498;50.928;11.598;2022-11-11T17:10:51;10.17;;;5.63;;
10890;SDS011;5498;50.928;11.598;2022-11-11T17:13:53;10.10;;;5.57;;
10890;SDS011;5498;50.928;11.598;2022-11-11T17:16:55;8.50;;;5.57;;
10890;SDS011;5498;50.928;11.598;2022-11-11T17:19:59;7.10;;;5.07;;
10890;SDS011;5498;50.928;11.598;2022-11-11T17:23:05;8.40;;;4.37;;
10890;SDS011;5498;50.928;11.598;2022-11-11T17:26:07;11.33;;;4.53;;
10890;SDS011;5498;50.928;11.598;2022-11-11T17:29:09;11.77;;;5.47;;
10890;SDS011;5498;50.928;11.598;2022-11-11T17:32:12;6.93;;;5.33;;
10890;SDS011;5498;50.928;11.598;2022-11-11T17:35:14;12.20;;;6.57;;
10890;SDS011;5498;50.928;11.598;2022-11-11T17:38:18;14.23;;;7.63;;
10890;SDS011;5498;50.928;11.598;2022-11-11T17:41:20;12.73;;;7.23;;
10890;SDS011;5498;50.928;11.598;2022-11-11T17:44:22;15.23;;;6.63;;
10890;SDS011;5498;50.928;11.598;2022-11-11T17:47:24;10.53;;;7.30;;
10890;SDS011;5498;50.928;11.598;2022-11-11T17:50:26;10.47;;;6.30;;
10890;SDS011;5498;50.928;11.598;2022-11-11T17:53:32;11.17;;;6.37;;
10890;SDS011;5498;50.928;11.598;2022-11-11T17:56:36;12.93;;;6.87;;
10890;SDS011;5498;50.928;11.598;2022-11-11T17:59:38;12.63;;;7.23;;
10890;SDS011;5498;50.928;11.598;2022-11-11T18:02:40;11.53;;;7.43;;
10890;SDS011;5498;50.928;11.598;2022-11-11T18:05:42;12.93;;;8.30;;
10890;SDS011;5498;50.928;11.598;2022-11-11T18:08:46;12.47;;;8.13;;
10890;SDS011;5498;50.928;11.598;2022-11-11T18:11:48;13.17;;;7.17;;
10890;SDS011;5498;50.928;11.598;2022-11-11T18:14:50;13.53;;;7.67;;
10890;SDS011;5498;50.928;11.598;2022-11-11T18:17:52;10.63;;;8.30;;
10890;SDS011;5498;50.928;11.598;2022-11-11T18:20:58;16.23;;;8.80;;
10890;SDS011;5498;50.928;11.598;2022-11-11T18:24:04;14.07;;;9.10;;
10890;SDS011;5498;50.928;11.598;2022-11-11T18:27:07;14.90;;;9.07;;
10890;SDS011;5498;50.928;11.598;2022-11-11T18:30:09;14.30;;;7.90;;
10890;SDS011;5498;50.928;11.598;2022-11-11T18:33:12;15.40;;;7.83;;
10890;SDS011;5498;50.928;11.598;2022-11-11T18:36:15;13.67;;;7.97;;
10890;SDS011;5498;50.928;11.598;2022-11-11T18:39:21;14.60;;;8.90;;
10890;SDS011;5498;50.928;11.598;2022-11-11T18:42:23;15.03;;;9.67;;
10890;SDS011;5498;50.928;11.598;2022-11-11T18:45:25;14.53;;;7.63;;
10890;SDS011;5498;50.928;11.598;2022-11-11T18:48:28;15.53;;;8.97;;
10890;SDS011;5498;50.928;11.598;2022-11-11T18:51:31;11.53;;;7.30;;
10890;SDS011;5498;50.928;11.598;2022-11-11T18:54:36;20.17;;;11.50;;
10890;SDS011;5498;50.928;11.598;2022-11-11T18:57:38;15.17;;;8.87;;